sensor_id;sensor_type;location;lat;lon;timestamp;temperature;humidity
29003;DHT22;16102;57.138;-2.118;2022-12-07T00:01:24;3.60;62.30
29003;DHT22;16102;57.138;-2.118;2022-12-07T00:03:53;3.60;70.30
29003;DHT22;16102;57.138;-2.118;2022-12-07T00:06:20;3.50;68.70
29003;DHT22;16102;57.138;-2.118;2022-12-07T00:08:47;3.50;78.00
29003;DHT22;16102;57.138;-2.118;2022-12-07T00:11:19;3.50;87.10
29003;DHT22;16102;57.138;-2.118;2022-12-07T00:13:51;3.50;83.10
29003;DHT22;16102;57.138;-2.118;2022-12-07T00:16:19;3.50;81.90
29003;DHT22;16102;57.138;-2.118;2022-12-07T00:18:47;3.50;71.90
29003;DHT22;16102;57.138;-2.118;2022-12-07T00:21:23;3.50;69.70
29003;DHT22;16102;57.138;-2.118;2022-12-07T00:23:51;3.40;73.10
29003;DHT22;16102;57.138;-2.118;2022-12-07T00:26:22;3.40;73.70
29003;DHT22;16102;57.138;-2.118;2022-12-07T00:28:51;3.40;73.80
29003;DHT22;16102;57.138;-2.118;2022-12-07T00:31:21;3.40;77.30
29003;DHT22;16102;57.138;-2.118;2022-12-07T00:33:49;3.30;79.20
29003;DHT22;16102;57.138;-2.118;2022-12-07T00:36:20;3.40;76.40
29003;DHT22;16102;57.138;-2.118;2022-12-07T00:38:53;3.40;77.80
29003;DHT22;16102;57.138;-2.118;2022-12-07T00:41:22;3.40;74.30
29003;DHT22;16102;57.138;-2.118;2022-12-07T00:43:50;3.40;72.50
29003;DHT22;16102;57.138;-2.118;2022-12-07T00:46:18;3.40;72.60
29003;DHT22;16102;57.138;-2.118;2022-12-07T00:48:46;3.30;73.10
29003;DHT22;16102;57.138;-2.118;2022-12-07T00:51:15;3.30;78.10
29003;DHT22;16102;57.138;-2.118;2022-12-07T00:53:43;3.30;81.40
29003;DHT22;16102;57.138;-2.118;2022-12-07T00:56:16;3.40;82.90
29003;DHT22;16102;57.138;-2.118;2022-12-07T00:58:43;3.40;91.50
29003;DHT22;16102;57.138;-2.118;2022-12-07T01:01:11;3.50;64.00
29003;DHT22;16102;57.138;-2.118;2022-12-07T01:03:38;3.50;61.80
29003;DHT22;16102;57.138;-2.118;2022-12-07T01:06:05;3.50;57.00
29003;DHT22;16102;57.138;-2.118;2022-12-07T01:08:33;3.50;53.40
29003;DHT22;16102;57.138;-2.118;2022-12-07T01:11:03;3.50;51.70
29003;DHT22;16102;57.138;-2.118;2022-12-07T01:13:31;3.50;52.20
29003;DHT22;16102;57.138;-2.118;2022-12-07T01:16:01;3.50;49.90
29003;DHT22;16102;57.138;-2.118;2022-12-07T01:18:32;3.50;50.90
29003;DHT22;16102;57.138;-2.118;2022-12-07T01:21:00;3.50;48.70
29003;DHT22;16102;57.138;-2.118;2022-12-07T01:23:28;3.50;39.00
29003;DHT22;16102;57.138;-2.118;2022-12-07T01:25:57;3.50;35.90
29003;DHT22;16102;57.138;-2.118;2022-12-07T01:28:25;3.50;32.40
29003;DHT22;16102;57.138;-2.118;2022-12-07T01:31:07;3.50;30.10
29003;DHT22;16102;57.138;-2.118;2022-12-07T01:33:36;3.40;24.90
29003;DHT22;16102;57.138;-2.118;2022-12-07T01:36:08;3.40;22.20
29003;DHT22;16102;57.138;-2.118;2022-12-07T01:38:40;3.40;19.10
29003;DHT22;16102;57.138;-2.118;2022-12-07T01:41:07;3.40;10.40
29003;DHT22;16102;57.138;-2.118;2022-12-07T01:43:34;3.40;1.00
29003;DHT22;16102;57.138;-2.118;2022-12-07T01:46:02;3.40;1.00
29003;DHT22;16102;57.138;-2.118;2022-12-07T01:48:39;3.50;1.00
29003;DHT22;16102;57.138;-2.118;2022-12-07T01:51:10;3.50;1.00
29003;DHT22;16102;57.138;-2.118;2022-12-07T01:53:41;3.50;1.00
29003;DHT22;16102;57.138;-2.118;2022-12-07T01:56:11;3.60;1.00
29003;DHT22;16102;57.138;-2.118;2022-12-07T01:58:42;3.60;1.00
29003;DHT22;16102;57.138;-2.118;2022-12-07T02:01:09;3.70;1.00
29003;DHT22;16102;57.138;-2.118;2022-12-07T02:03:40;3.70;1.00
29003;DHT22;16102;57.138;-2.118;2022-12-07T02:06:08;3.80;1.00
29003;DHT22;16102;57.138;-2.118;2022-12-07T02:08:36;3.70;1.00
29003;DHT22;16102;57.138;-2.118;2022-12-07T02:11:04;3.70;1.00
29003;DHT22;16102;57.138;-2.118;2022-12-07T02:13:34;3.70;1.00
29003;DHT22;16102;57.138;-2.118;2022-12-07T02:18:55;3.70;1.00
29003;DHT22;16102;57.138;-2.118;2022-12-07T02:27:50;3.70;1.00
29003;DHT22;16102;57.138;-2.118;2022-12-07T02:30:20;3.70;1.00
29003;DHT22;16102;57.138;-2.118;2022-12-07T02:38:04;3.80;1.00
29003;DHT22;16102;57.138;-2.118;2022-12-07T02:41:12;3.80;1.00
29003;DHT22;16102;57.138;-2.118;2022-12-07T02:43:35;3.80;1.00
29003;DHT22;16102;57.138;-2.118;2022-12-07T02:46:07;3.80;1.00
29003;DHT22;16102;57.138;-2.118;2022-12-07T02:48:37;3.90;1.00
29003;DHT22;16102;57.138;-2.118;2022-12-07T02:51:05;4.00;1.00
29003;DHT22;16102;57.138;-2.118;2022-12-07T02:53:43;4.00;1.00
29003;DHT22;16102;57.138;-2.118;2022-12-07T02:59:54;4.00;1.00
29003;DHT22;16102;57.138;-2.118;2022-12-07T03:10:42;4.00;1.00
29003;DHT22;16102;57.138;-2.118;2022-12-07T03:13:05;4.00;1.00
29003;DHT22;16102;57.138;-2.118;2022-12-07T03:18:08;4.00;1.00
29003;DHT22;16102;57.138;-2.118;2022-12-07T03:20:38;4.00;1.00
29003;DHT22;16102;57.138;-2.118;2022-12-07T03:23:10;3.90;1.00
29003;DHT22;16102;57.138;-2.118;2022-12-07T03:25:42;3.90;1.00
29003;DHT22;16102;57.138;-2.118;2022-12-07T03:28:11;4.00;1.00
29003;DHT22;16102;57.138;-2.118;2022-12-07T03:30:57;4.00;1.00
29003;DHT22;16102;57.138;-2.118;2022-12-07T03:33:36;3.90;1.00
29003;DHT22;16102;57.138;-2.118;2022-12-07T03:36:12;3.80;1.00
29003;DHT22;16102;57.138;-2.118;2022-12-07T03:38:47;3.70;1.00
29003;DHT22;16102;57.138;-2.118;2022-12-07T03:41:23;3.70;1.00
29003;DHT22;16102;57.138;-2.118;2022-12-07T03:43:53;3.70;1.00
29003;DHT22;16102;57.138;-2.118;2022-12-07T03:49:28;3.60;1.00
29003;DHT22;16102;57.138;-2.118;2022-12-07T03:54:31;3.70;1.00
29003;DHT22;16102;57.138;-2.118;2022-12-07T03:57:01;3.70;1.00
29003;DHT22;16102;57.138;-2.118;2022-12-07T03:59:29;3.60;1.00
29003;DHT22;16102;57.138;-2.118;2022-12-07T04:02:01;3.60;12.90
29003;DHT22;16102;57.138;-2.118;2022-12-07T04:04:29;3.60;31.00
29003;DHT22;16102;57.138;-2.118;2022-12-07T04:06:56;3.50;22.90
29003;DHT22;16102;57.138;-2.118;2022-12-07T04:09:23;3.50;16.50
29003;DHT22;16102;57.138;-2.118;2022-12-07T04:11:50;3.50;16.10
29003;DHT22;16102;57.138;-2.118;2022-12-07T04:14:17;3.50;11.10
29003;DHT22;16102;57.138;-2.118;2022-12-07T04:16:53;3.40;22.90
29003;DHT22;16102;57.138;-2.118;2022-12-07T04:19:22;3.40;8.00
29003;DHT22;16102;57.138;-2.118;2022-12-07T04:21:49;3.30;8.90
29003;DHT22;16102;57.138;-2.118;2022-12-07T04:24:16;3.30;8.00
29003;DHT22;16102;57.138;-2.118;2022-12-07T04:26:44;3.40;6.80
29003;DHT22;16102;57.138;-2.118;2022-12-07T04:29:12;3.40;7.60
29003;DHT22;16102;57.138;-2.118;2022-12-07T04:31:39;3.40;11.80
29003;DHT22;16102;57.138;-2.118;2022-12-07T04:34:07;3.40;3.90
29003;DHT22;16102;57.138;-2.118;2022-12-07T04:36:34;3.40;1.40
29003;DHT22;16102;57.138;-2.118;2022-12-07T04:39:02;3.50;1.00
29003;DHT22;16102;57.138;-2.118;2022-12-07T04:41:29;3.50;1.00
29003;DHT22;16102;57.138;-2.118;2022-12-07T04:43:59;3.50;1.00
29003;DHT22;16102;57.138;-2.118;2022-12-07T04:46:28;3.50;1.00
29003;DHT22;16102;57.138;-2.118;2022-12-07T04:48:56;3.50;1.00
29003;DHT22;16102;57.138;-2.118;2022-12-07T04:51:26;3.50;1.00
29003;DHT22;16102;57.138;-2.118;2022-12-07T04:53:54;3.50;1.00
29003;DHT22;16102;57.138;-2.118;2022-12-07T04:56:22;3.40;1.00
29003;DHT22;16102;57.138;-2.118;2022-12-07T04:58:50;3.40;1.00
29003;DHT22;16102;57.138;-2.118;2022-12-07T05:01:18;3.30;1.00
29003;DHT22;16102;57.138;-2.118;2022-12-07T05:03:45;3.30;1.00
29003;DHT22;16102;57.138;-2.118;2022-12-07T05:06:14;3.30;1.00
29003;DHT22;16102;57.138;-2.118;2022-12-07T05:08:41;3.30;1.00
29003;DHT22;16102;57.138;-2.118;2022-12-07T05:11:09;3.30;1.00
29003;DHT22;16102;57.138;-2.118;2022-12-07T05:13:56;3.40;1.00
29003;DHT22;16102;57.138;-2.118;2022-12-07T05:16:24;3.40;1.00
29003;DHT22;16102;57.138;-2.118;2022-12-07T05:18:52;3.40;1.00
29003;DHT22;16102;57.138;-2.118;2022-12-07T05:21:19;3.40;1.00
29003;DHT22;16102;57.138;-2.118;2022-12-07T05:23:46;3.50;1.00
29003;DHT22;16102;57.138;-2.118;2022-12-07T05:26:13;3.50;1.00
29003;DHT22;16102;57.138;-2.118;2022-12-07T05:28:40;3.50;1.00
29003;DHT22;16102;57.138;-2.118;2022-12-07T05:31:07;3.50;1.00
29003;DHT22;16102;57.138;-2.118;2022-12-07T05:33:34;3.50;1.00
29003;DHT22;16102;57.138;-2.118;2022-12-07T05:36:01;3.50;1.00
29003;DHT22;16102;57.138;-2.118;2022-12-07T05:38:32;3.50;1.00
29003;DHT22;16102;57.138;-2.118;2022-12-07T05:41:04;3.40;1.00
29003;DHT22;16102;57.138;-2.118;2022-12-07T05:43:32;3.50;1.00
29003;DHT22;16102;57.138;-2.118;2022-12-07T05:45:59;3.50;1.00
29003;DHT22;16102;57.138;-2.118;2022-12-07T05:48:26;3.40;1.00
29003;DHT22;16102;57.138;-2.118;2022-12-07T05:50:53;3.40;1.00
29003;DHT22;16102;57.138;-2.118;2022-12-07T05:53:20;3.40;1.00
29003;DHT22;16102;57.138;-2.118;2022-12-07T05:55:49;3.40;1.00
29003;DHT22;16102;57.138;-2.118;2022-12-07T05:58:16;3.40;1.00
29003;DHT22;16102;57.138;-2.118;2022-12-07T06:01:01;3.40;1.00
29003;DHT22;16102;57.138;-2.118;2022-12-07T06:03:28;3.40;1.00
29003;DHT22;16102;57.138;-2.118;2022-12-07T06:05:55;3.50;1.00
29003;DHT22;16102;57.138;-2.118;2022-12-07T06:08:22;3.50;1.00
29003;DHT22;16102;57.138;-2.118;2022-12-07T06:10:49;3.50;1.00
29003;DHT22;16102;57.138;-2.118;2022-12-07T06:13:38;3.50;1.00
29003;DHT22;16102;57.138;-2.118;2022-12-07T06:16:12;3.50;1.00
29003;DHT22;16102;57.138;-2.118;2022-12-07T06:18:39;3.40;1.00
29003;DHT22;16102;57.138;-2.118;2022-12-07T06:21:06;3.40;1.00
29003;DHT22;16102;57.138;-2.118;2022-12-07T06:23:33;3.40;1.00
29003;DHT22;16102;57.138;-2.118;2022-12-07T06:26:00;3.40;1.00
29003;DHT22;16102;57.138;-2.118;2022-12-07T06:28:27;3.40;1.00
29003;DHT22;16102;57.138;-2.118;2022-12-07T06:31:01;3.40;1.00
29003;DHT22;16102;57.138;-2.118;2022-12-07T06:33:28;3.40;1.00
29003;DHT22;16102;57.138;-2.118;2022-12-07T06:35:55;3.40;1.00
29003;DHT22;16102;57.138;-2.118;2022-12-07T06:38:22;3.40;1.00
29003;DHT22;16102;57.138;-2.118;2022-12-07T06:40:49;3.40;1.00
29003;DHT22;16102;57.138;-2.118;2022-12-07T06:43:16;3.40;11.70
29003;DHT22;16102;57.138;-2.118;2022-12-07T06:45:43;3.30;19.60
29003;DHT22;16102;57.138;-2.118;2022-12-07T06:48:10;3.40;31.70
29003;DHT22;16102;57.138;-2.118;2022-12-07T06:50:37;3.30;44.00
29003;DHT22;16102;57.138;-2.118;2022-12-07T06:53:04;3.30;55.80
29003;DHT22;16102;57.138;-2.118;2022-12-07T06:55:31;3.30;64.40
29003;DHT22;16102;57.138;-2.118;2022-12-07T06:57:58;3.40;69.00
29003;DHT22;16102;57.138;-2.118;2022-12-07T07:00:25;3.40;85.40
29003;DHT22;16102;57.138;-2.118;2022-12-07T07:02:52;3.40;94.30
29003;DHT22;16102;57.138;-2.118;2022-12-07T07:05:19;3.40;99.90
29003;DHT22;16102;57.138;-2.118;2022-12-07T07:07:51;3.50;99.90
29003;DHT22;16102;57.138;-2.118;2022-12-07T07:10:38;3.50;99.90
29003;DHT22;16102;57.138;-2.118;2022-12-07T07:13:06;3.50;99.90
29003;DHT22;16102;57.138;-2.118;2022-12-07T07:15:34;3.30;99.90
29003;DHT22;16102;57.138;-2.118;2022-12-07T07:18:01;3.30;99.90
29003;DHT22;16102;57.138;-2.118;2022-12-07T07:20:33;3.30;99.90
29003;DHT22;16102;57.138;-2.118;2022-12-07T07:23:00;3.30;99.90
29003;DHT22;16102;57.138;-2.118;2022-12-07T07:25:27;3.30;99.90
29003;DHT22;16102;57.138;-2.118;2022-12-07T07:27:54;3.30;99.90
29003;DHT22;16102;57.138;-2.118;2022-12-07T07:30:21;3.30;99.90
29003;DHT22;16102;57.138;-2.118;2022-12-07T07:32:48;3.30;99.90
29003;DHT22;16102;57.138;-2.118;2022-12-07T07:35:15;3.20;99.90
29003;DHT22;16102;57.138;-2.118;2022-12-07T07:37:42;3.20;99.90
29003;DHT22;16102;57.138;-2.118;2022-12-07T07:40:10;3.10;99.90
29003;DHT22;16102;57.138;-2.118;2022-12-07T07:42:37;3.10;99.90
29003;DHT22;16102;57.138;-2.118;2022-12-07T07:45:04;3.20;99.90
29003;DHT22;16102;57.138;-2.118;2022-12-07T07:47:31;3.10;99.90
29003;DHT22;16102;57.138;-2.118;2022-12-07T07:49:58;3.10;99.90
29003;DHT22;16102;57.138;-2.118;2022-12-07T07:52:25;3.20;99.90
29003;DHT22;16102;57.138;-2.118;2022-12-07T07:54:52;3.10;99.90
29003;DHT22;16102;57.138;-2.118;2022-12-07T07:57:19;3.20;99.90
29003;DHT22;16102;57.138;-2.118;2022-12-07T07:59:46;3.20;99.90
29003;DHT22;16102;57.138;-2.118;2022-12-07T08:02:15;3.20;99.90
29003;DHT22;16102;57.138;-2.118;2022-12-07T08:04:43;3.30;99.90
29003;DHT22;16102;57.138;-2.118;2022-12-07T08:07:11;3.30;99.90
29003;DHT22;16102;57.138;-2.118;2022-12-07T08:09:38;3.30;99.90
29003;DHT22;16102;57.138;-2.118;2022-12-07T08:12:05;3.30;99.90
29003;DHT22;16102;57.138;-2.118;2022-12-07T08:14:33;3.30;99.90
29003;DHT22;16102;57.138;-2.118;2022-12-07T08:17:00;3.30;99.90
29003;DHT22;16102;57.138;-2.118;2022-12-07T08:19:27;3.30;99.90
29003;DHT22;16102;57.138;-2.118;2022-12-07T08:21:55;3.40;99.90
29003;DHT22;16102;57.138;-2.118;2022-12-07T08:24:23;3.40;99.90
29003;DHT22;16102;57.138;-2.118;2022-12-07T08:26:50;3.40;99.90
29003;DHT22;16102;57.138;-2.118;2022-12-07T08:29:17;3.30;99.90
29003;DHT22;16102;57.138;-2.118;2022-12-07T08:31:45;3.30;99.90
29003;DHT22;16102;57.138;-2.118;2022-12-07T08:34:12;3.30;99.90
29003;DHT22;16102;57.138;-2.118;2022-12-07T08:36:39;3.20;99.90
29003;DHT22;16102;57.138;-2.118;2022-12-07T08:39:06;3.20;99.90
29003;DHT22;16102;57.138;-2.118;2022-12-07T08:41:53;3.20;99.90
29003;DHT22;16102;57.138;-2.118;2022-12-07T08:44:20;3.20;99.90
29003;DHT22;16102;57.138;-2.118;2022-12-07T08:46:56;3.10;99.90
29003;DHT22;16102;57.138;-2.118;2022-12-07T08:49:47;3.10;99.90
29003;DHT22;16102;57.138;-2.118;2022-12-07T08:52:15;3.10;99.90
29003;DHT22;16102;57.138;-2.118;2022-12-07T08:54:42;3.00;99.90
29003;DHT22;16102;57.138;-2.118;2022-12-07T08:57:10;3.10;99.90
29003;DHT22;16102;57.138;-2.118;2022-12-07T08:59:38;3.00;99.90
29003;DHT22;16102;57.138;-2.118;2022-12-07T09:02:06;3.00;99.90
29003;DHT22;16102;57.138;-2.118;2022-12-07T09:04:33;3.00;99.90
29003;DHT22;16102;57.138;-2.118;2022-12-07T09:07:00;3.00;99.90
29003;DHT22;16102;57.138;-2.118;2022-12-07T09:09:27;3.00;99.90
29003;DHT22;16102;57.138;-2.118;2022-12-07T09:11:54;3.00;99.90
29003;DHT22;16102;57.138;-2.118;2022-12-07T09:14:22;3.00;99.90
29003;DHT22;16102;57.138;-2.118;2022-12-07T09:16:49;3.00;99.90
29003;DHT22;16102;57.138;-2.118;2022-12-07T09:19:16;3.00;99.90
29003;DHT22;16102;57.138;-2.118;2022-12-07T09:21:43;3.00;99.90
29003;DHT22;16102;57.138;-2.118;2022-12-07T09:24:12;3.00;99.90
29003;DHT22;16102;57.138;-2.118;2022-12-07T09:26:39;3.00;99.90
29003;DHT22;16102;57.138;-2.118;2022-12-07T09:29:07;3.00;99.90
29003;DHT22;16102;57.138;-2.118;2022-12-07T09:31:37;3.00;99.90
29003;DHT22;16102;57.138;-2.118;2022-12-07T09:34:04;3.00;99.90
29003;DHT22;16102;57.138;-2.118;2022-12-07T09:36:33;3.10;99.90
29003;DHT22;16102;57.138;-2.118;2022-12-07T09:39:00;3.10;99.90
29003;DHT22;16102;57.138;-2.118;2022-12-07T09:41:27;3.10;98.90
29003;DHT22;16102;57.138;-2.118;2022-12-07T09:44:24;3.10;93.30
29003;DHT22;16102;57.138;-2.118;2022-12-07T09:46:50;3.20;83.70
29003;DHT22;16102;57.138;-2.118;2022-12-07T09:49:21;3.10;63.80
29003;DHT22;16102;57.138;-2.118;2022-12-07T09:54:31;3.20;41.90
29003;DHT22;16102;57.138;-2.118;2022-12-07T09:57:00;3.20;33.90
29003;DHT22;16102;57.138;-2.118;2022-12-07T09:59:27;3.30;29.20
29003;DHT22;16102;57.138;-2.118;2022-12-07T10:02:23;3.30;27.90
29003;DHT22;16102;57.138;-2.118;2022-12-07T10:04:51;3.30;20.80
29003;DHT22;16102;57.138;-2.118;2022-12-07T10:07:18;3.40;17.50
29003;DHT22;16102;57.138;-2.118;2022-12-07T10:09:45;3.50;12.60
29003;DHT22;16102;57.138;-2.118;2022-12-07T10:12:12;3.60;4.20
29003;DHT22;16102;57.138;-2.118;2022-12-07T10:14:54;3.70;2.70
29003;DHT22;16102;57.138;-2.118;2022-12-07T10:17:36;3.80;1.00
29003;DHT22;16102;57.138;-2.118;2022-12-07T10:25:29;3.80;1.00
29003;DHT22;16102;57.138;-2.118;2022-12-07T10:30:30;3.80;1.00
29003;DHT22;16102;57.138;-2.118;2022-12-07T10:32:58;3.80;1.00
29003;DHT22;16102;57.138;-2.118;2022-12-07T10:35:30;3.70;1.00
29003;DHT22;16102;57.138;-2.118;2022-12-07T10:37:59;3.70;11.10
29003;DHT22;16102;57.138;-2.118;2022-12-07T10:40:27;3.50;27.90
29003;DHT22;16102;57.138;-2.118;2022-12-07T10:43:20;3.50;51.70
29003;DHT22;16102;57.138;-2.118;2022-12-07T10:48:54;3.40;95.30
29003;DHT22;16102;57.138;-2.118;2022-12-07T11:10:44;4.10;99.90
29003;DHT22;16102;57.138;-2.118;2022-12-07T11:13:29;4.30;83.30
29003;DHT22;16102;57.138;-2.118;2022-12-07T11:24:20;4.50;1.00
29003;DHT22;16102;57.138;-2.118;2022-12-07T11:27:58;4.60;1.00
29003;DHT22;16102;57.138;-2.118;2022-12-07T11:35:30;4.80;1.00
29003;DHT22;16102;57.138;-2.118;2022-12-07T11:38:07;4.90;1.00
29003;DHT22;16102;57.138;-2.118;2022-12-07T11:40:36;4.90;1.00
29003;DHT22;16102;57.138;-2.118;2022-12-07T11:43:24;5.00;1.00
29003;DHT22;16102;57.138;-2.118;2022-12-07T11:46:11;5.20;1.00
29003;DHT22;16102;57.138;-2.118;2022-12-07T11:48:43;5.30;1.00
29003;DHT22;16102;57.138;-2.118;2022-12-07T11:51:12;5.60;1.00
29003;DHT22;16102;57.138;-2.118;2022-12-07T11:56:15;5.70;1.00
29003;DHT22;16102;57.138;-2.118;2022-12-07T11:58:54;5.80;1.00
29003;DHT22;16102;57.138;-2.118;2022-12-07T12:04:07;6.40;1.00
29003;DHT22;16102;57.138;-2.118;2022-12-07T12:06:43;6.60;1.00
29003;DHT22;16102;57.138;-2.118;2022-12-07T12:12:52;6.70;1.00
29003;DHT22;16102;57.138;-2.118;2022-12-07T12:21:07;7.00;1.00
29003;DHT22;16102;57.138;-2.118;2022-12-07T12:26:22;7.30;1.00
29003;DHT22;16102;57.138;-2.118;2022-12-07T12:29:05;7.40;1.00
29003;DHT22;16102;57.138;-2.118;2022-12-07T12:31:39;7.60;1.00
29003;DHT22;16102;57.138;-2.118;2022-12-07T12:34:41;7.60;1.00
29003;DHT22;16102;57.138;-2.118;2022-12-07T12:42:55;6.90;1.00
29003;DHT22;16102;57.138;-2.118;2022-12-07T12:45:32;6.70;1.00
29003;DHT22;16102;57.138;-2.118;2022-12-07T12:48:03;6.60;1.00
29003;DHT22;16102;57.138;-2.118;2022-12-07T12:50:37;6.30;1.00
29003;DHT22;16102;57.138;-2.118;2022-12-07T12:53:25;6.20;1.00
29003;DHT22;16102;57.138;-2.118;2022-12-07T12:58:36;6.50;1.00
29003;DHT22;16102;57.138;-2.118;2022-12-07T13:04:03;7.50;1.00
29003;DHT22;16102;57.138;-2.118;2022-12-07T13:06:40;7.50;1.00
29003;DHT22;16102;57.138;-2.118;2022-12-07T13:09:19;7.60;1.00
29003;DHT22;16102;57.138;-2.118;2022-12-07T13:11:48;7.40;1.00
29003;DHT22;16102;57.138;-2.118;2022-12-07T13:14:55;7.70;1.00
29003;DHT22;16102;57.138;-2.118;2022-12-07T13:19:59;7.20;1.00
29003;DHT22;16102;57.138;-2.118;2022-12-07T13:25:07;6.60;1.00
29003;DHT22;16102;57.138;-2.118;2022-12-07T13:27:39;6.00;1.00
29003;DHT22;16102;57.138;-2.118;2022-12-07T13:30:20;5.70;1.00
29003;DHT22;16102;57.138;-2.118;2022-12-07T13:32:53;5.40;1.00
29003;DHT22;16102;57.138;-2.118;2022-12-07T13:35:36;5.20;1.00
29003;DHT22;16102;57.138;-2.118;2022-12-07T13:38:38;5.10;1.00
29003;DHT22;16102;57.138;-2.118;2022-12-07T13:41:16;4.80;1.00
29003;DHT22;16102;57.138;-2.118;2022-12-07T13:43:48;4.80;1.00
29003;DHT22;16102;57.138;-2.118;2022-12-07T13:46:19;4.90;1.00
29003;DHT22;16102;57.138;-2.118;2022-12-07T13:48:49;5.70;1.00
29003;DHT22;16102;57.138;-2.118;2022-12-07T13:51:22;6.60;1.00
29003;DHT22;16102;57.138;-2.118;2022-12-07T13:53:53;7.20;1.00
29003;DHT22;16102;57.138;-2.118;2022-12-07T13:56:29;7.30;1.00
29003;DHT22;16102;57.138;-2.118;2022-12-07T13:58:59;7.90;1.00
29003;DHT22;16102;57.138;-2.118;2022-12-07T14:01:28;8.00;1.00
29003;DHT22;16102;57.138;-2.118;2022-12-07T14:06:55;8.60;1.00
29003;DHT22;16102;57.138;-2.118;2022-12-07T14:09:25;8.50;1.00
29003;DHT22;16102;57.138;-2.118;2022-12-07T14:11:54;8.10;1.00
29003;DHT22;16102;57.138;-2.118;2022-12-07T14:14:30;8.30;1.00
29003;DHT22;16102;57.138;-2.118;2022-12-07T14:17:19;7.50;1.00
29003;DHT22;16102;57.138;-2.118;2022-12-07T14:20:00;6.60;1.00
29003;DHT22;16102;57.138;-2.118;2022-12-07T14:22:37;6.30;1.00
29003;DHT22;16102;57.138;-2.118;2022-12-07T14:27:52;5.60;1.00
29003;DHT22;16102;57.138;-2.118;2022-12-07T14:30:27;5.50;1.00
29003;DHT22;16102;57.138;-2.118;2022-12-07T14:33:03;5.40;1.00
29003;DHT22;16102;57.138;-2.118;2022-12-07T14:35:31;5.20;1.00
29003;DHT22;16102;57.138;-2.118;2022-12-07T14:37:58;5.20;1.00
29003;DHT22;16102;57.138;-2.118;2022-12-07T14:40:29;4.90;1.00
29003;DHT22;16102;57.138;-2.118;2022-12-07T14:43:02;4.90;1.00
29003;DHT22;16102;57.138;-2.118;2022-12-07T14:45:29;4.80;1.00
29003;DHT22;16102;57.138;-2.118;2022-12-07T14:47:57;4.70;1.00
29003;DHT22;16102;57.138;-2.118;2022-12-07T14:50:49;4.60;1.00
29003;DHT22;16102;57.138;-2.118;2022-12-07T14:53:44;4.40;1.00
29003;DHT22;16102;57.138;-2.118;2022-12-07T14:56:18;4.30;1.00
29003;DHT22;16102;57.138;-2.118;2022-12-07T14:58:45;4.10;1.00
29003;DHT22;16102;57.138;-2.118;2022-12-07T15:01:14;4.00;1.00
29003;DHT22;16102;57.138;-2.118;2022-12-07T15:03:41;4.10;1.00
29003;DHT22;16102;57.138;-2.118;2022-12-07T15:06:14;4.10;1.00
29003;DHT22;16102;57.138;-2.118;2022-12-07T15:08:41;4.00;1.00
29003;DHT22;16102;57.138;-2.118;2022-12-07T15:11:13;4.00;1.00
29003;DHT22;16102;57.138;-2.118;2022-12-07T15:13:41;3.80;1.00
29003;DHT22;16102;57.138;-2.118;2022-12-07T15:16:26;3.80;1.00
29003;DHT22;16102;57.138;-2.118;2022-12-07T15:19:14;3.80;1.00
29003;DHT22;16102;57.138;-2.118;2022-12-07T15:21:57;3.90;1.00
29003;DHT22;16102;57.138;-2.118;2022-12-07T15:24:25;3.90;1.00
29003;DHT22;16102;57.138;-2.118;2022-12-07T15:26:53;3.90;1.00
29003;DHT22;16102;57.138;-2.118;2022-12-07T15:29:20;3.90;1.00
29003;DHT22;16102;57.138;-2.118;2022-12-07T15:31:50;3.80;1.00
29003;DHT22;16102;57.138;-2.118;2022-12-07T15:34:27;3.80;1.00
29003;DHT22;16102;57.138;-2.118;2022-12-07T15:37:05;3.80;1.00
29003;DHT22;16102;57.138;-2.118;2022-12-07T15:39:33;3.70;1.00
29003;DHT22;16102;57.138;-2.118;2022-12-07T15:42:00;3.60;1.00
29003;DHT22;16102;57.138;-2.118;2022-12-07T15:44:27;3.60;1.00
29003;DHT22;16102;57.138;-2.118;2022-12-07T15:47:13;3.60;1.00
29003;DHT22;16102;57.138;-2.118;2022-12-07T15:49:40;3.60;5.10
29003;DHT22;16102;57.138;-2.118;2022-12-07T15:52:07;3.60;1.80
29003;DHT22;16102;57.138;-2.118;2022-12-07T15:54:34;3.50;1.20
29003;DHT22;16102;57.138;-2.118;2022-12-07T15:57:01;3.60;6.80
29003;DHT22;16102;57.138;-2.118;2022-12-07T15:59:29;3.60;10.60
29003;DHT22;16102;57.138;-2.118;2022-12-07T16:01:56;3.70;13.10
29003;DHT22;16102;57.138;-2.118;2022-12-07T16:04:23;3.70;12.30
29003;DHT22;16102;57.138;-2.118;2022-12-07T16:06:50;3.70;9.20
29003;DHT22;16102;57.138;-2.118;2022-12-07T16:09:18;3.60;12.50
29003;DHT22;16102;57.138;-2.118;2022-12-07T16:11:45;3.50;12.60
29003;DHT22;16102;57.138;-2.118;2022-12-07T16:14:12;3.50;23.10
29003;DHT22;16102;57.138;-2.118;2022-12-07T16:16:39;3.50;32.70
29003;DHT22;16102;57.138;-2.118;2022-12-07T16:19:07;3.50;41.90
29003;DHT22;16102;57.138;-2.118;2022-12-07T16:21:35;3.50;49.50
29003;DHT22;16102;57.138;-2.118;2022-12-07T16:24:03;3.50;53.40
29003;DHT22;16102;57.138;-2.118;2022-12-07T16:26:30;3.50;40.40
29003;DHT22;16102;57.138;-2.118;2022-12-07T16:28:58;3.50;38.10
29003;DHT22;16102;57.138;-2.118;2022-12-07T16:31:26;3.50;39.40
29003;DHT22;16102;57.138;-2.118;2022-12-07T16:33:55;3.50;44.60
29003;DHT22;16102;57.138;-2.118;2022-12-07T16:36:23;3.50;36.30
29003;DHT22;16102;57.138;-2.118;2022-12-07T16:39:12;3.40;30.20
29003;DHT22;16102;57.138;-2.118;2022-12-07T16:41:39;3.40;43.10
29003;DHT22;16102;57.138;-2.118;2022-12-07T16:44:09;3.40;37.00
29003;DHT22;16102;57.138;-2.118;2022-12-07T16:46:37;3.30;36.00
29003;DHT22;16102;57.138;-2.118;2022-12-07T16:49:04;3.30;44.00
29003;DHT22;16102;57.138;-2.118;2022-12-07T16:51:31;3.30;50.90
29003;DHT22;16102;57.138;-2.118;2022-12-07T16:54:01;3.30;35.60
29003;DHT22;16102;57.138;-2.118;2022-12-07T16:56:28;3.30;42.70
29003;DHT22;16102;57.138;-2.118;2022-12-07T16:58:58;3.30;95.30
29003;DHT22;16102;57.138;-2.118;2022-12-07T17:01:25;3.30;99.90
29003;DHT22;16102;57.138;-2.118;2022-12-07T17:03:56;3.30;99.90
29003;DHT22;16102;57.138;-2.118;2022-12-07T17:06:26;3.40;99.90
29003;DHT22;16102;57.138;-2.118;2022-12-07T17:08:54;3.40;99.90
29003;DHT22;16102;57.138;-2.118;2022-12-07T17:11:25;3.50;99.90
29003;DHT22;16102;57.138;-2.118;2022-12-07T17:13:53;3.40;99.90
29003;DHT22;16102;57.138;-2.118;2022-12-07T17:16:38;3.40;99.90
29003;DHT22;16102;57.138;-2.118;2022-12-07T17:19:07;3.30;99.90
29003;DHT22;16102;57.138;-2.118;2022-12-07T17:21:35;3.10;99.90
29003;DHT22;16102;57.138;-2.118;2022-12-07T17:24:04;3.00;99.90
29003;DHT22;16102;57.138;-2.118;2022-12-07T17:26:33;2.90;99.90
29003;DHT22;16102;57.138;-2.118;2022-12-07T17:29:03;2.90;99.90
29003;DHT22;16102;57.138;-2.118;2022-12-07T17:31:30;2.90;99.90
29003;DHT22;16102;57.138;-2.118;2022-12-07T17:33:59;3.00;99.90
29003;DHT22;16102;57.138;-2.118;2022-12-07T17:36:29;3.00;99.90
29003;DHT22;16102;57.138;-2.118;2022-12-07T17:38:56;3.00;99.90
29003;DHT22;16102;57.138;-2.118;2022-12-07T17:41:26;2.90;99.90
29003;DHT22;16102;57.138;-2.118;2022-12-07T17:44:14;2.90;99.90
29003;DHT22;16102;57.138;-2.118;2022-12-07T17:46:41;2.90;99.90
29003;DHT22;16102;57.138;-2.118;2022-12-07T17:49:09;2.90;97.60
29003;DHT22;16102;57.138;-2.118;2022-12-07T17:51:36;3.00;91.80
29003;DHT22;16102;57.138;-2.118;2022-12-07T17:54:22;2.90;67.30
29003;DHT22;16102;57.138;-2.118;2022-12-07T17:56:49;3.00;59.60
29003;DHT22;16102;57.138;-2.118;2022-12-07T17:59:16;3.00;56.50
29003;DHT22;16102;57.138;-2.118;2022-12-07T18:01:44;3.00;58.20